Time,TemperatureF,DewpointF,PressureIn,WindDirection,WindDirectionDegrees,WindSpeedMPH,WindSpeedGustMPH,Humidity,HourlyPrecipIn,Conditions,Clouds,dailyrainin,SolarRadiationWatts/m^2,SoftwareType,DateUTC
2018-01-21 00:00:00,31.0,30.0,29.73,ENE,72,0.0,0.0,96,0.00,RA,,0.00,0.0,WeatherDisplay:10.37,2018-01-21 00:00:00,
2018-01-21 00:05:00,31.0,30.0,29.73,ENE,72,0.0,0.0,96,0.00,RA,,0.00,0.0,WeatherDisplay:10.37,2018-01-21 00:05:00,
2018-01-21 00:10:00,31.0,30.0,29.74,ENE,72,0.9,2.3,96,0.00,,,0.00,0.0,WeatherDisplay:10.37,2018-01-21 00:10:00,
2018-01-21 00:15:00,31.0,30.0,29.74,ENE,72,0.0,1.2,96,0.00,,,0.00,0.0,WeatherDisplay:10.37,2018-01-21 00:15:00,
2018-01-21 00:20:00,31.1,30.1,29.74,ENE,72,1.7,3.5,96,0.00,,,0.00,0.0,WeatherDisplay:10.37,2018-01-21 00:20:00,
2018-01-21 00:25:00,31.0,30.0,29.74,ENE,72,0.0,0.0,96,0.00,,,0.00,0.0,WeatherDisplay:10.37,2018-01-21 00:25:00,
2018-01-21 00:30:00,31.0,30.0,29.74,ENE,72,0.0,0.0,96,0.00,,,0.00,0.0,WeatherDisplay:10.37,2018-01-21 00:30:00,
2018-01-21 00:35:00,31.0,30.0,29.74,ENE,72,0.0,0.0,96,0.00,,,0.00,0.0,WeatherDisplay:10.37,2018-01-21 00:35:00,
2018-01-21 00:40:00,31.0,30.0,29.74,ENE,72,0.0,0.0,96,0.00,,,0.00,0.0,WeatherDisplay:10.37,2018-01-21 00:40:00,
2018-01-21 00:45:00,31.0,30.0,29.75,ENE,72,0.0,0.0,96,0.00,,,0.00,0.0,WeatherDisplay:10.37,2018-01-21 00:45:00,
2018-01-21 00:50:00,31.0,30.0,29.75,ENE,72,0.0,0.0,96,0.00,,,0.00,0.0,WeatherDisplay:10.37,2018-01-21 00:50:00,
2018-01-21 00:55:00,30.9,29.9,29.75,ENE,72,0.0,0.0,96,0.00,,,0.00,0.0,WeatherDisplay:10.37,2018-01-21 00:55:00,
2018-01-21 01:00:00,31.0,30.0,29.75,ENE,72,0.0,0.0,96,0.00,,,0.00,0.0,WeatherDisplay:10.37,2018-01-21 01:00:00,
2018-01-21 01:05:00,31.0,30.0,29.75,ENE,72,0.0,0.0,96,0.00,,,0.00,0.0,WeatherDisplay:10.37,2018-01-21 01:05:00,
2018-01-21 01:10:00,31.0,30.0,29.76,ENE,72,0.0,0.0,96,0.00,,,0.00,0.0,WeatherDisplay:10.37,2018-01-21 01:10:00,
2018-01-21 01:15:00,31.0,30.0,29.76,ENE,72,0.0,0.0,96,0.00,,,0.00,0.0,WeatherDisplay:10.37,2018-01-21 01:15:00,
2018-01-21 01:20:00,31.0,30.0,29.76,ENE,72,0.0,0.0,96,0.00,,,0.00,0.0,WeatherDisplay:10.37,2018-01-21 01:20:00,
2018-01-21 01:25:00,31.1,30.1,29.76,ENE,72,0.0,0.0,96,0.00,,,0.00,0.0,WeatherDisplay:10.37,2018-01-21 01:25:00,
2018-01-21 01:30:00,31.2,30.2,29.76,ENE,72,1.5,3.5,96,0.00,,,0.00,0.0,WeatherDisplay:10.37,2018-01-21 01:30:00,
2018-01-21 01:35:00,31.2,30.2,29.76,ENE,72,1.6,2.3,96,0.00,,,0.00,0.0,WeatherDisplay:10.37,2018-01-21 01:35:00,
2018-01-21 01:40:00,31.3,30.3,29.76,ENE,72,1.2,2.3,96,0.00,,,0.00,0.0,WeatherDisplay:10.37,2018-01-21 01:40:00,
2018-01-21 01:45:00,31.4,30.4,29.76,ENE,72,1.2,2.3,96,0.00,,,0.00,0.0,WeatherDisplay:10.37,2018-01-21 01:45:00,
2018-01-21 01:50:00,31.4,30.4,29.76,ENE,72,1.4,2.3,96,0.00,,,0.00,0.0,WeatherDisplay:10.37,2018-01-21 01:50:00,
2018-01-21 01:55:00,31.5,30.5,29.76,ENE,72,2.1,3.5,96,0.00,,,0.00,0.0,WeatherDisplay:10.37,2018-01-21 01:55:00,